Etusivu
METAR-TAF:

METAR-TAF

Lentoasemat :

Piggs Peak, Swazimaa

Leveyspiiri: 25-58-04S, Pituuspiiri: 31-15-03E, korkeus merenpinnasta: 1099 m

Tämänhetkinen sää

Tämä raportti tehtiin 1 tunti ja 8 minuuttia sitten, kello 20.00 UTC
Tuuli 1 kn lounaasta
Lämpötila 17°C
Kosteus 77%
Ilmanpaine 1028 hPa

METAR: FDPP 222000Z AUTO 22001KT //// // ////// 17/13 Q1028

Aika: 23:08 (21:08 UTC)


TAF: puuttuu

Säähavainnot ja -ennusteet yli 4000 lentoasemalta (METAR- ja TAF-raportit).

Käytössä olevat sääasemat on merkitty karttaan keltaisilla ja punaisilla pisteillä.

Aseta hiiri pisteen päälle nähdäksesi sääaseman nimen.

Klikkaa sitten nähdäksesi säähavainnot ja -ennusteet.

Kartan vaihtaminen: klikkaa mustalla rastilla varustettuja vihreitä pisteitä, niin voit zoomata sisään; viivalla varustettua vihreää pistettä, niin voit zoomata ulos tai vihreitä nuolia, niin pääset viereisille kartoille.


METAR-TAF: